createdAt,value
2022-12-24T00:00:32.220Z,8.8
2022-12-24T00:01:33.326Z,8.8
2022-12-24T00:02:34.601Z,8.8
2022-12-24T00:03:36.452Z,8.8
2022-12-24T00:04:38.269Z,8.8
2022-12-24T00:05:39.686Z,8.8
2022-12-24T00:06:40.584Z,8.8
2022-12-24T00:07:41.514Z,8.8
2022-12-24T00:08:42.897Z,8.8
2022-12-24T00:09:44.073Z,8.8
2022-12-24T00:10:45.296Z,8.8
2022-12-24T00:11:46.136Z,8.8
2022-12-24T00:12:47.286Z,8.8
2022-12-24T00:13:48.690Z,8.8
2022-12-24T00:14:50.114Z,8.8
2022-12-24T00:15:50.963Z,8.8
2022-12-24T00:16:52.238Z,8.8
2022-12-24T00:17:53.722Z,8.8
2022-12-24T00:18:54.945Z,8.8
2022-12-24T00:19:56.100Z,8.8
2022-12-24T00:20:57.219Z,8.8
2022-12-24T00:21:58.358Z,8.8
2022-12-24T00:22:59.794Z,8.8
2022-12-24T00:24:00.667Z,8.8
2022-12-24T00:25:02.200Z,8.8
2022-12-24T00:26:03.684Z,8.8
2022-12-24T00:27:04.819Z,8.8
2022-12-24T00:28:05.955Z,8.8
2022-12-24T00:29:07.091Z,8.8
2022-12-24T00:30:08.289Z,8.8
2022-12-24T00:31:09.452Z,8.8
2022-12-24T00:32:10.912Z,8.8
2022-12-24T00:33:11.545Z,8.8
2022-12-24T00:34:12.468Z,8.8
2022-12-24T00:35:13.896Z,8.7
2022-12-24T00:36:15.319Z,8.7
2022-12-24T00:37:16.551Z,8.7
2022-12-24T00:38:18.030Z,8.7
2022-12-24T00:39:19.435Z,8.7
2022-12-24T00:40:20.858Z,8.7
2022-12-24T00:41:22.263Z,8.7
2022-12-24T00:42:23.679Z,8.7
2022-12-24T00:43:25.101Z,8.7
2022-12-24T00:44:26.237Z,8.7
2022-12-24T00:45:27.652Z,8.7
2022-12-24T00:46:28.908Z,8.7
2022-12-24T00:47:30.073Z,8.7
2022-12-24T00:48:31.246Z,8.7
2022-12-24T00:49:32.453Z,8.7
2022-12-24T00:50:33.875Z,8.7
2022-12-24T00:51:35.396Z,8.7
2022-12-24T00:52:37.160Z,8.6
2022-12-24T00:53:38.327Z,8.7
2022-12-24T00:54:39.436Z,8.6
2022-12-24T00:55:40.867Z,8.7
2022-12-24T00:56:41.771Z,8.7
2022-12-24T00:57:42.948Z,8.7
2022-12-24T00:58:43.811Z,8.7
2022-12-24T00:59:44.712Z,8.6
2022-12-24T01:00:45.624Z,8.6
2022-12-24T01:01:46.591Z,8.6
2022-12-24T01:02:48.552Z,8.6
2022-12-24T01:03:50.324Z,8.6
2022-12-24T01:04:52.009Z,8.6
2022-12-24T01:05:53.168Z,8.6
2022-12-24T01:06:54.579Z,8.6
2022-12-24T01:07:55.722Z,8.6
2022-12-24T01:08:57.155Z,8.6
2022-12-24T01:09:58.056Z,8.6
2022-12-24T01:10:58.956Z,8.6
2022-12-24T01:12:00.087Z,8.6
2022-12-24T01:13:01.225Z,8.6
2022-12-24T01:14:02.649Z,8.6
2022-12-24T01:15:04.076Z,8.6
2022-12-24T01:16:05.262Z,8.6
2022-12-24T01:17:06.773Z,8.6
2022-12-24T01:18:08.182Z,8.6
2022-12-24T01:19:09.142Z,8.6
2022-12-24T01:20:10.284Z,8.6
2022-12-24T01:21:11.415Z,8.6
2022-12-24T01:22:12.823Z,8.6
2022-12-24T01:23:13.739Z,8.6
2022-12-24T01:24:14.898Z,8.6
2022-12-24T01:25:16.032Z,8.6
2022-12-24T01:26:17.150Z,8.6
2022-12-24T01:27:18.567Z,8.6
2022-12-24T01:28:19.970Z,8.6
2022-12-24T01:29:21.157Z,8.6
2022-12-24T01:30:22.301Z,8.6
2022-12-24T01:31:23.230Z,8.6
2022-12-24T01:32:24.578Z,8.6
2022-12-24T01:33:25.960Z,8.6
2022-12-24T01:34:27.372Z,8.6
2022-12-24T01:35:28.515Z,8.6
2022-12-24T01:36:29.921Z,8.6
2022-12-24T01:37:31.336Z,8.6
2022-12-24T01:38:32.753Z,8.6
2022-12-24T01:39:34.199Z,8.6
2022-12-24T01:40:35.606Z,8.5
2022-12-24T01:41:36.717Z,8.6
2022-12-24T01:42:38.168Z,8.5
2022-12-24T01:43:39.546Z,8.5
2022-12-24T01:44:40.680Z,8.6
2022-12-24T01:45:42.220Z,8.6
2022-12-24T01:46:43.642Z,8.6
2022-12-24T01:47:45.332Z,8.6
2022-12-24T01:48:46.760Z,8.6
2022-12-24T01:49:47.885Z,8.6
2022-12-24T01:50:49.088Z,8.6
2022-12-24T01:51:49.934Z,8.6
2022-12-24T01:52:51.056Z,8.6
2022-12-24T01:53:52.229Z,8.6
2022-12-24T01:54:53.675Z,8.6
2022-12-24T01:55:55.216Z,8.6
2022-12-24T01:56:55.825Z,8.6
2022-12-24T01:57:57.693Z,8.6
2022-12-24T01:58:58.880Z,8.5
2022-12-24T02:00:00.310Z,8.5
2022-12-24T02:01:01.455Z,8.5
2022-12-24T02:02:03.243Z,8.5
2022-12-24T02:03:05.247Z,8.5
2022-12-24T02:04:06.834Z,8.5
2022-12-24T02:05:08.251Z,8.5
2022-12-24T02:06:09.689Z,8.5
2022-12-24T02:07:10.975Z,8.5
2022-12-24T02:08:12.392Z,8.5
2022-12-24T02:09:13.529Z,8.5
2022-12-24T02:10:14.726Z,8.5
2022-12-24T02:11:15.939Z,8.5
2022-12-24T02:12:17.342Z,8.5
2022-12-24T02:13:18.770Z,8.5
2022-12-24T02:14:20.170Z,8.5
2022-12-24T02:15:21.332Z,8.5
2022-12-24T02:16:22.804Z,8.5
2022-12-24T02:17:24.284Z,8.5
2022-12-24T02:18:25.700Z,8.5
2022-12-24T02:19:26.589Z,8.5
2022-12-24T02:20:27.486Z,8.5
2022-12-24T02:21:28.925Z,8.5
2022-12-24T02:22:30.037Z,8.5
2022-12-24T02:23:31.176Z,8.5
2022-12-24T02:24:32.351Z,8.5
2022-12-24T02:25:33.510Z,8.5
2022-12-24T02:26:34.910Z,8.5
2022-12-24T02:27:36.313Z,8.5
2022-12-24T02:28:37.733Z,8.5
2022-12-24T02:29:39.163Z,8.5
2022-12-24T02:30:40.348Z,8.5
2022-12-24T02:31:41.843Z,8.5
2022-12-24T02:32:43.606Z,8.5
2022-12-24T02:33:45.025Z,8.5
2022-12-24T02:34:46.157Z,8.5
2022-12-24T02:35:47.012Z,8.5
2022-12-24T02:36:47.935Z,8.5
2022-12-24T02:37:49.343Z,8.4
2022-12-24T02:38:50.756Z,8.5
2022-12-24T02:39:51.899Z,8.4
2022-12-24T02:40:54.172Z,8.4
2022-12-24T02:41:55.372Z,8.4
2022-12-24T02:42:56.273Z,8.4
2022-12-24T02:43:57.677Z,8.4
2022-12-24T02:44:59.096Z,8.4
2022-12-24T02:46:00.520Z,8.4
2022-12-24T02:47:01.463Z,8.4
2022-12-24T02:48:02.871Z,8.4
2022-12-24T02:49:04.276Z,8.4
2022-12-24T02:50:05.459Z,8.4
2022-12-24T02:51:06.317Z,8.4
2022-12-24T02:52:07.735Z,8.4
2022-12-24T02:53:08.872Z,8.4
2022-12-24T02:54:09.726Z,8.4
2022-12-24T02:55:11.138Z,8.4
2022-12-24T02:56:12.578Z,8.4
2022-12-24T02:57:13.978Z,8.4
2022-12-24T02:58:15.143Z,8.4
2022-12-24T02:59:16.010Z,8.4
2022-12-24T03:00:16.901Z,8.4
2022-12-24T03:01:18.471Z,8.4
2022-12-24T03:02:19.849Z,8.4
2022-12-24T03:03:21.704Z,8.4
2022-12-24T03:04:23.117Z,8.4
2022-12-24T03:05:24.534Z,8.4
2022-12-24T03:06:25.154Z,8.4
2022-12-24T03:07:26.574Z,8.4
2022-12-24T03:08:27.980Z,8.4
2022-12-24T03:09:29.114Z,8.4
2022-12-24T03:10:30.249Z,8.4
2022-12-24T03:11:31.408Z,8.4
2022-12-24T03:12:32.574Z,8.4
2022-12-24T03:13:33.988Z,8.4
2022-12-24T03:14:35.174Z,8.3
2022-12-24T03:15:36.344Z,8.3
2022-12-24T03:16:37.783Z,8.3
2022-12-24T03:17:39.139Z,8.3
2022-12-24T03:18:40.534Z,8.3
2022-12-24T03:19:41.672Z,8.3
2022-12-24T03:20:42.531Z,8.3
2022-12-24T03:21:43.944Z,8.3
2022-12-24T03:22:45.479Z,8.3
2022-12-24T03:23:46.596Z,8.3
2022-12-24T03:24:47.809Z,8.3
2022-12-24T03:25:48.927Z,8.3
2022-12-24T03:26:50.155Z,8.3
2022-12-24T03:27:51.549Z,8.3
2022-12-24T03:28:52.954Z,8.3
2022-12-24T03:29:54.130Z,8.3
2022-12-24T03:30:54.987Z,8.3
2022-12-24T03:31:55.875Z,8.3
2022-12-24T03:32:57.557Z,8.3
2022-12-24T03:33:58.959Z,8.3
2022-12-24T03:35:00.114Z,8.3
2022-12-24T03:36:01.517Z,8.4
2022-12-24T03:37:02.374Z,8.4
2022-12-24T03:38:03.803Z,8.4
2022-12-24T03:39:04.958Z,8.4
2022-12-24T03:40:06.371Z,8.5
2022-12-24T03:41:07.789Z,8.5
2022-12-24T03:42:09.244Z,8.5
2022-12-24T03:43:10.346Z,8.5
2022-12-24T03:44:11.801Z,8.5
2022-12-24T03:45:12.684Z,8.6
2022-12-24T03:46:14.122Z,8.6
2022-12-24T03:47:15.784Z,8.6
2022-12-24T03:48:16.972Z,8.6
2022-12-24T03:49:18.402Z,8.6
2022-12-24T03:50:19.814Z,8.6
2022-12-24T03:51:21.238Z,8.7
2022-12-24T03:52:22.367Z,8.7
2022-12-24T03:53:23.774Z,8.7
2022-12-24T03:54:25.201Z,8.7
2022-12-24T03:55:26.119Z,8.7
2022-12-24T03:56:27.026Z,8.7
2022-12-24T03:57:28.739Z,8.8
2022-12-24T03:58:29.861Z,8.8
2022-12-24T03:59:31.280Z,8.8
2022-12-24T04:00:32.690Z,8.8
2022-12-24T04:01:34.213Z,8.8
2022-12-24T04:02:36.431Z,8.8
2022-12-24T04:03:38.319Z,8.8
2022-12-24T04:04:39.727Z,8.8
2022-12-24T04:05:40.860Z,8.8
2022-12-24T04:06:42.055Z,8.8
2022-12-24T04:07:43.323Z,8.8
2022-12-24T04:08:44.707Z,8.8
2022-12-24T04:09:46.126Z,8.9
2022-12-24T04:10:47.545Z,8.9
2022-12-24T04:11:48.440Z,8.9
2022-12-24T04:12:49.885Z,8.9
2022-12-24T04:13:51.056Z,8.9
2022-12-24T04:14:52.471Z,8.9
2022-12-24T04:15:53.658Z,8.9
2022-12-24T04:16:54.823Z,8.9
2022-12-24T04:17:56.036Z,8.9
2022-12-24T04:18:57.225Z,8.9
2022-12-24T04:19:58.640Z,8.9
2022-12-24T04:20:59.537Z,8.9
2022-12-24T04:22:00.951Z,8.9
2022-12-24T04:23:02.393Z,8.9
2022-12-24T04:24:03.782Z,8.9
2022-12-24T04:25:04.921Z,8.9
2022-12-24T04:26:05.835Z,8.9
2022-12-24T04:27:06.734Z,9
2022-12-24T04:28:07.957Z,9
2022-12-24T04:29:09.331Z,9
2022-12-24T04:30:10.466Z,9
2022-12-24T04:31:11.885Z,9
2022-12-24T04:32:13.135Z,9
2022-12-24T04:33:14.134Z,9
2022-12-24T04:34:15.032Z,9
2022-12-24T04:35:16.162Z,9
2022-12-24T04:36:17.577Z,9
2022-12-24T04:37:18.714Z,9
2022-12-24T04:38:19.860Z,9
2022-12-24T04:39:21.269Z,9
2022-12-24T04:40:22.693Z,9
2022-12-24T04:41:24.864Z,9
2022-12-24T04:42:26.256Z,9
2022-12-24T04:43:27.703Z,9
2022-12-24T04:44:28.859Z,9.1
2022-12-24T04:45:30.043Z,9
2022-12-24T04:46:31.530Z,9.1
2022-12-24T04:47:32.759Z,9.1
2022-12-24T04:48:33.962Z,9.1
2022-12-24T04:49:35.354Z,9.1
2022-12-24T04:50:36.767Z,9
2022-12-24T04:51:38.193Z,9.1
2022-12-24T04:52:39.101Z,9.1
2022-12-24T04:53:40.796Z,9.1
2022-12-24T04:54:42.208Z,9.1
2022-12-24T04:55:43.312Z,9.1
2022-12-24T04:56:44.526Z,9.1
2022-12-24T04:57:49.762Z,9.1
2022-12-24T04:58:54.407Z,9.1
2022-12-24T04:59:55.794Z,9.1
2022-12-24T05:00:57.244Z,9.1
2022-12-24T05:01:58.697Z,9.1
2022-12-24T05:03:00.482Z,9.1
2022-12-24T05:04:02.118Z,9.1
2022-12-24T05:05:02.940Z,9.1
2022-12-24T05:06:03.843Z,9.1
2022-12-24T05:07:05.276Z,9.1
2022-12-24T05:08:06.168Z,9.1
2022-12-24T05:09:07.328Z,9.1
2022-12-24T05:10:08.452Z,9.1
2022-12-24T05:11:09.574Z,9.1
2022-12-24T05:12:10.776Z,9.1
2022-12-24T05:13:12.205Z,9.2
2022-12-24T05:14:13.645Z,9.1
2022-12-24T05:15:14.231Z,9.2
2022-12-24T05:16:15.767Z,9.2
2022-12-24T05:17:17.223Z,9.2
2022-12-24T05:18:18.378Z,9.2
2022-12-24T05:19:19.523Z,9.2
2022-12-24T05:20:20.412Z,9.2
2022-12-24T05:21:21.277Z,9.2
2022-12-24T05:22:22.337Z,9.2
2022-12-24T05:23:23.510Z,9.2
2022-12-24T05:24:24.667Z,9.2
2022-12-24T05:25:25.789Z,9.2
2022-12-24T05:26:26.924Z,9.2
2022-12-24T05:27:28.336Z,9.2
2022-12-24T05:28:29.512Z,9.1
2022-12-24T05:29:30.951Z,9.1
2022-12-24T05:30:32.346Z,9.1
2022-12-24T05:31:33.971Z,9.1
2022-12-24T05:32:35.359Z,9.1
2022-12-24T05:33:36.488Z,9.1
2022-12-24T05:34:37.661Z,9.1
2022-12-24T05:35:38.770Z,9.1
2022-12-24T05:36:39.953Z,9
2022-12-24T05:37:41.074Z,9
2022-12-24T05:38:42.236Z,9
2022-12-24T05:39:43.636Z,9
2022-12-24T05:40:45.040Z,9
2022-12-24T05:41:46.176Z,9
2022-12-24T05:42:47.116Z,9
2022-12-24T05:43:48.252Z,9
2022-12-24T05:44:49.478Z,9
2022-12-24T05:45:50.613Z,9
2022-12-24T05:46:52.168Z,9
2022-12-24T05:47:53.094Z,9
2022-12-24T05:48:54.507Z,9
2022-12-24T05:49:55.656Z,8.9
2022-12-24T05:50:57.060Z,8.9
2022-12-24T05:51:57.921Z,9
2022-12-24T05:52:58.821Z,8.9
2022-12-24T05:53:59.960Z,8.9
2022-12-24T05:55:01.400Z,8.9
2022-12-24T05:56:02.022Z,8.9
2022-12-24T05:57:03.421Z,8.9
2022-12-24T05:58:04.617Z,8.9
2022-12-24T05:59:06.054Z,8.9
2022-12-24T06:00:07.205Z,8.9
2022-12-24T06:01:08.357Z,8.9
2022-12-24T06:02:09.710Z,8.9
2022-12-24T06:03:11.122Z,8.9
2022-12-24T06:04:12.352Z,8.9
2022-12-24T06:05:13.668Z,8.9
2022-12-24T06:06:15.236Z,8.9
2022-12-24T06:07:16.705Z,8.8
2022-12-24T06:08:17.841Z,8.8
2022-12-24T06:09:18.976Z,8.8
2022-12-24T06:10:20.395Z,8.8
2022-12-24T06:11:21.247Z,8.8
2022-12-24T06:12:22.663Z,8.8
2022-12-24T06:13:24.075Z,8.8
2022-12-24T06:14:25.489Z,8.8
2022-12-24T06:15:26.705Z,8.8
2022-12-24T06:16:28.132Z,8.7
2022-12-24T06:17:29.941Z,8.7
2022-12-24T06:18:31.079Z,8.7
2022-12-24T06:19:32.208Z,8.7
2022-12-24T06:20:33.630Z,8.7
2022-12-24T06:21:34.767Z,8.7
2022-12-24T06:22:35.900Z,8.7
2022-12-24T06:23:37.082Z,8.7
2022-12-24T06:24:38.279Z,8.7
2022-12-24T06:25:39.701Z,8.7
2022-12-24T06:26:40.605Z,8.6
2022-12-24T06:27:42.030Z,8.6
2022-12-24T06:28:43.148Z,8.6
2022-12-24T06:29:43.791Z,8.6
2022-12-24T06:30:45.287Z,8.6
2022-12-24T06:31:46.880Z,8.6
2022-12-24T06:32:48.590Z,8.6
2022-12-24T06:33:50.030Z,8.6
2022-12-24T06:34:51.421Z,8.6
2022-12-24T06:35:54.360Z,8.6
2022-12-24T06:36:55.516Z,8.6
2022-12-24T06:37:56.652Z,8.6
2022-12-24T06:38:57.786Z,8.6
2022-12-24T06:39:59.206Z,8.6
2022-12-24T06:41:00.624Z,8.6
2022-12-24T06:42:02.030Z,8.6
2022-12-24T06:43:03.448Z,8.6
2022-12-24T06:44:04.855Z,8.6
2022-12-24T06:45:08.553Z,8.6
2022-12-24T06:46:10.228Z,8.6
2022-12-24T06:47:11.540Z,8.6
2022-12-24T06:48:12.950Z,8.6
2022-12-24T06:49:13.805Z,8.6
2022-12-24T06:50:15.217Z,8.6
2022-12-24T06:51:16.639Z,8.6
2022-12-24T06:52:18.062Z,8.6
2022-12-24T06:53:18.905Z,8.6
2022-12-24T06:54:19.763Z,8.6
2022-12-24T06:55:20.901Z,8.6
2022-12-24T06:56:21.542Z,8.6
2022-12-24T06:57:22.941Z,8.6
2022-12-24T06:58:24.097Z,8.7
2022-12-24T06:59:25.208Z,8.7
2022-12-24T07:00:26.357Z,8.7
2022-12-24T07:01:27.876Z,8.7
2022-12-24T07:02:29.648Z,8.7
2022-12-24T07:03:31.592Z,8.7
2022-12-24T07:04:33.109Z,8.6
2022-12-24T07:05:34.236Z,8.6
2022-12-24T07:06:35.364Z,8.6
2022-12-24T07:07:35.985Z,8.6
2022-12-24T07:08:37.395Z,8.6
2022-12-24T07:09:38.814Z,8.6
2022-12-24T07:10:40.239Z,8.7
2022-12-24T07:11:41.362Z,8.6
2022-12-24T07:12:42.782Z,8.6
2022-12-24T07:13:43.639Z,8.6
2022-12-24T07:14:45.051Z,8.6
2022-12-24T07:15:46.207Z,8.6
2022-12-24T07:16:47.470Z,8.6
2022-12-24T07:17:57.407Z,8.6
2022-12-24T07:18:58.827Z,8.6
2022-12-24T07:19:59.958Z,8.6
2022-12-24T07:21:01.168Z,8.6
2022-12-24T07:22:02.067Z,8.5
2022-12-24T07:23:02.925Z,8.5
2022-12-24T07:24:04.333Z,8.5
2022-12-24T07:25:05.517Z,8.5
2022-12-24T07:26:06.937Z,8.5
2022-12-24T07:27:08.124Z,8.5
2022-12-24T07:28:09.529Z,8.5
2022-12-24T07:29:10.437Z,8.5
2022-12-24T07:30:11.651Z,8.5
2022-12-24T07:31:12.832Z,8.5
2022-12-24T07:32:14.328Z,8.5
2022-12-24T07:33:15.485Z,8.5
2022-12-24T07:34:16.673Z,8.5
2022-12-24T07:35:17.866Z,8.5
2022-12-24T07:36:19.299Z,8.5
2022-12-24T07:37:20.471Z,8.5
2022-12-24T07:38:21.361Z,8.5
2022-12-24T07:39:22.505Z,8.5
2022-12-24T07:40:23.366Z,8.5
2022-12-24T07:41:24.506Z,8.5
2022-12-24T07:42:25.915Z,8.5
2022-12-24T07:43:27.344Z,8.5
2022-12-24T07:44:28.758Z,8.5
2022-12-24T07:45:29.389Z,8.5
2022-12-24T07:46:30.528Z,8.5
2022-12-24T07:47:31.496Z,8.5
2022-12-24T07:48:32.609Z,8.5
2022-12-24T07:49:34.123Z,8.5
2022-12-24T07:50:35.619Z,8.5
2022-12-24T07:51:37.037Z,8.5
2022-12-24T07:52:38.454Z,8.5
2022-12-24T07:53:39.875Z,8.5
2022-12-24T07:54:41.124Z,8.5
2022-12-24T07:55:42.541Z,8.5
2022-12-24T07:56:43.960Z,8.5
2022-12-24T07:57:45.368Z,8.5
2022-12-24T07:58:47.224Z,8.5
2022-12-24T07:59:48.326Z,8.5
2022-12-24T08:00:49.472Z,8.5
2022-12-24T08:01:50.884Z,8.5
2022-12-24T08:02:53.306Z,8.5
2022-12-24T08:03:55.286Z,8.5
2022-12-24T08:04:57.231Z,8.5
2022-12-24T08:05:58.372Z,8.5
2022-12-24T08:06:59.522Z,8.5
2022-12-24T08:08:00.631Z,8.5
2022-12-24T08:09:01.839Z,8.5
2022-12-24T08:10:03.230Z,8.5
2022-12-24T08:11:04.422Z,8.5
2022-12-24T08:12:05.500Z,8.5
2022-12-24T08:13:06.658Z,8.5
2022-12-24T08:14:08.084Z,8.5
2022-12-24T08:15:09.486Z,8.5
2022-12-24T08:16:10.940Z,8.6
2022-12-24T08:17:12.488Z,8.6
2022-12-24T08:18:13.926Z,8.6
2022-12-24T08:19:15.409Z,8.6
2022-12-24T08:20:16.552Z,8.6
2022-12-24T08:21:17.969Z,8.6
2022-12-24T08:22:19.107Z,8.6
2022-12-24T08:23:20.517Z,8.6
2022-12-24T08:24:21.507Z,8.7
2022-12-24T08:25:22.640Z,8.7
2022-12-24T08:26:23.799Z,8.7
2022-12-24T08:27:25.220Z,8.7
2022-12-24T08:28:26.631Z,8.7
2022-12-24T08:29:28.053Z,8.7
2022-12-24T08:30:29.480Z,8.7
2022-12-24T08:31:30.741Z,8.8
2022-12-24T08:32:31.944Z,8.8
2022-12-24T08:33:33.092Z,8.8
2022-12-24T08:34:34.308Z,8.8
2022-12-24T08:35:35.717Z,8.8
2022-12-24T08:36:36.697Z,8.9
2022-12-24T08:37:38.169Z,8.9
2022-12-24T08:38:39.543Z,8.9
2022-12-24T08:39:40.720Z,8.9
2022-12-24T08:40:44.951Z,8.9
2022-12-24T08:41:46.169Z,9
2022-12-24T08:42:47.698Z,9
2022-12-24T08:43:48.903Z,9
2022-12-24T08:44:50.028Z,9
2022-12-24T08:45:51.443Z,9
2022-12-24T08:46:53.014Z,9
2022-12-24T08:47:54.162Z,9
2022-12-24T08:48:55.309Z,9
2022-12-24T08:49:56.226Z,9.1
2022-12-24T08:50:57.610Z,9.1
2022-12-24T08:51:59.131Z,9.1
2022-12-24T08:53:00.017Z,9.1
2022-12-24T08:54:01.437Z,9.2
2022-12-24T08:55:02.597Z,9.2
2022-12-24T08:56:03.486Z,9.2
2022-12-24T08:57:04.689Z,9.2
2022-12-24T08:58:05.841Z,9.2
2022-12-24T08:59:07.003Z,9.1
2022-12-24T09:00:08.251Z,9.1
2022-12-24T09:01:09.746Z,9.2
2022-12-24T09:02:11.862Z,9.2
2022-12-24T09:03:14.422Z,9.2
2022-12-24T09:04:16.107Z,9.2
2022-12-24T09:05:17.503Z,9.2
2022-12-24T09:06:18.946Z,9.2
2022-12-24T09:07:20.116Z,9.2
2022-12-24T09:08:21.007Z,9.3
2022-12-24T09:09:22.222Z,9.3
2022-12-24T09:10:23.451Z,9.3
2022-12-24T09:11:24.808Z,9.3
2022-12-24T09:12:26.272Z,9.4
2022-12-24T09:13:27.460Z,9.4
2022-12-24T09:14:28.874Z,9.4
2022-12-24T09:15:30.027Z,9.5
2022-12-24T09:16:31.208Z,9.5
2022-12-24T09:17:31.912Z,9.5
2022-12-24T09:18:33.319Z,9.5
2022-12-24T09:19:34.755Z,9.6
2022-12-24T09:20:35.664Z,9.6
2022-12-24T09:21:37.057Z,9.7
2022-12-24T09:22:38.467Z,9.7
2022-12-24T09:23:39.910Z,9.7
2022-12-24T09:24:41.076Z,9.7
2022-12-24T09:25:42.533Z,9.7
2022-12-24T09:26:43.939Z,9.7
2022-12-24T09:27:45.347Z,9.8
2022-12-24T09:28:46.767Z,9.8
2022-12-24T09:29:47.694Z,9.8
2022-12-24T09:30:48.894Z,9.8
2022-12-24T09:31:50.154Z,9.8
2022-12-24T09:32:51.618Z,9.8
2022-12-24T09:33:52.834Z,9.8
2022-12-24T09:34:54.005Z,9.8
2022-12-24T09:35:55.135Z,9.8
2022-12-24T09:36:56.249Z,9.8
2022-12-24T09:37:57.663Z,9.9
2022-12-24T09:38:59.085Z,9.9
2022-12-24T09:40:00.253Z,9.9
2022-12-24T09:41:07.028Z,9.9
2022-12-24T09:42:09.789Z,9.9
2022-12-24T09:43:11.206Z,9.9
2022-12-24T09:44:12.617Z,9.9
2022-12-24T09:45:14.038Z,9.9
2022-12-24T09:46:15.259Z,9.9
2022-12-24T09:47:16.291Z,9.9
2022-12-24T09:48:17.817Z,9.9
2022-12-24T09:49:18.733Z,9.9
2022-12-24T09:50:19.883Z,9.9
2022-12-24T09:51:21.268Z,10
2022-12-24T09:52:22.365Z,10
2022-12-24T09:53:23.783Z,10
2022-12-24T09:54:25.233Z,10
2022-12-24T09:55:26.417Z,10.1
2022-12-24T09:56:27.573Z,10.1
2022-12-24T09:57:28.968Z,10.1
2022-12-24T09:58:30.100Z,10.1
2022-12-24T09:59:31.024Z,10.1
2022-12-24T10:00:32.439Z,10.1
2022-12-24T10:01:34.418Z,10.1
2022-12-24T10:02:36.400Z,10.1
2022-12-24T10:03:38.033Z,10.1
2022-12-24T10:04:39.344Z,10.1
2022-12-24T10:05:40.776Z,10.2
2022-12-24T10:06:41.941Z,10.2
2022-12-24T10:07:43.101Z,10.2
2022-12-24T10:08:44.236Z,10.2
2022-12-24T10:09:45.676Z,10.2
2022-12-24T10:10:47.081Z,10.2
2022-12-24T10:11:48.503Z,10.1
2022-12-24T10:12:50.121Z,10.1
2022-12-24T10:13:51.671Z,10.1
2022-12-24T10:14:53.113Z,10
2022-12-24T10:15:54.013Z,10.1
2022-12-24T10:16:55.209Z,10.1
2022-12-24T10:17:56.852Z,10.1
2022-12-24T10:18:57.771Z,10.1
2022-12-24T10:19:58.912Z,10.1
2022-12-24T10:21:00.356Z,10.1
2022-12-24T10:22:00.991Z,10.1
2022-12-24T10:23:01.899Z,10.1
2022-12-24T10:24:03.306Z,10
2022-12-24T10:25:04.372Z,10
2022-12-24T10:26:05.935Z,10
2022-12-24T10:27:07.159Z,10
2022-12-24T10:28:08.408Z,10
2022-12-24T10:29:09.825Z,9.9
2022-12-24T10:30:15.177Z,9.9
2022-12-24T10:31:18.608Z,9.9
2022-12-24T10:32:20.199Z,9.9
2022-12-24T10:33:21.595Z,9.9
2022-12-24T10:34:22.481Z,9.9
2022-12-24T10:35:23.638Z,9.9
2022-12-24T10:36:27.556Z,9.9
2022-12-24T10:37:28.493Z,9.9
2022-12-24T10:38:29.610Z,9.9
2022-12-24T10:39:30.504Z,9.9
2022-12-24T10:40:31.922Z,9.9
2022-12-24T10:41:33.321Z,9.9
2022-12-24T10:42:34.762Z,9.9
2022-12-24T10:43:35.915Z,9.9
2022-12-24T10:44:37.060Z,9.9
2022-12-24T10:45:38.196Z,9.9
2022-12-24T10:46:40.121Z,9.9
2022-12-24T10:47:41.795Z,9.9
2022-12-24T10:48:48.428Z,9.9
2022-12-24T10:49:52.190Z,9.8
2022-12-24T10:50:53.425Z,9.8
2022-12-24T10:51:54.866Z,9.8
2022-12-24T10:52:55.789Z,9.8
2022-12-24T10:53:57.209Z,9.8
2022-12-24T10:54:58.319Z,9.8
2022-12-24T10:55:59.738Z,9.7
2022-12-24T10:57:01.166Z,9.7
2022-12-24T10:58:02.715Z,9.7
2022-12-24T10:59:04.127Z,9.6
2022-12-24T11:00:05.516Z,9.6
2022-12-24T11:01:07.057Z,9.6
2022-12-24T11:02:08.725Z,9.6
2022-12-24T11:03:10.750Z,9.5
2022-12-24T11:04:12.447Z,9.5
2022-12-24T11:05:13.872Z,9.5
2022-12-24T11:06:15.319Z,9.5
2022-12-24T11:07:16.477Z,9.5
2022-12-24T11:08:17.449Z,9.5
2022-12-24T11:09:18.898Z,9.5
2022-12-24T11:10:20.315Z,9.4
2022-12-24T11:11:21.510Z,9.4
2022-12-24T11:12:22.698Z,9.4
2022-12-24T11:13:39.837Z,9.3
2022-12-24T11:14:41.228Z,9.3
2022-12-24T11:15:42.653Z,9.3
2022-12-24T11:16:43.838Z,9.3
2022-12-24T11:17:45.256Z,9.2
2022-12-24T11:18:50.747Z,9.2
2022-12-24T11:19:53.532Z,9.2
2022-12-24T11:20:54.670Z,9.2
2022-12-24T11:21:55.812Z,9.2
2022-12-24T11:22:57.236Z,9.1
2022-12-24T11:23:58.372Z,9.1
2022-12-24T11:24:59.256Z,9.1
2022-12-24T11:26:00.391Z,9.1
2022-12-24T11:27:01.867Z,9.1
2022-12-24T11:28:03.097Z,9.1
2022-12-24T11:29:04.281Z,9.1
2022-12-24T11:30:09.712Z,9.1
2022-12-24T11:31:13.269Z,9.1
2022-12-24T11:32:14.571Z,9.1
2022-12-24T11:33:15.470Z,9.1
2022-12-24T11:34:16.888Z,9.1
2022-12-24T11:35:18.076Z,9.1
2022-12-24T11:36:19.491Z,9.1
2022-12-24T11:37:20.420Z,9.1
2022-12-24T11:38:21.824Z,9.1
2022-12-24T11:39:23.212Z,9.1
2022-12-24T11:40:24.633Z,9.1
2022-12-24T11:41:26.045Z,9.1
2022-12-24T11:42:27.476Z,9.1
2022-12-24T11:43:28.872Z,9.1
2022-12-24T11:44:30.289Z,9
2022-12-24T11:45:31.471Z,9
2022-12-24T11:46:32.646Z,9
2022-12-24T11:47:34.217Z,9
2022-12-24T11:48:35.356Z,8.9
2022-12-24T11:49:36.225Z,8.9
2022-12-24T11:50:37.634Z,8.9
2022-12-24T11:51:39.025Z,8.9
2022-12-24T11:52:39.898Z,8.9
2022-12-24T11:53:41.100Z,8.8
2022-12-24T11:54:41.684Z,8.8
2022-12-24T11:55:42.818Z,8.8
2022-12-24T11:56:44.233Z,8.8
2022-12-24T11:57:45.456Z,8.8
2022-12-24T11:58:46.081Z,8.8
2022-12-24T11:59:47.268Z,8.8
2022-12-24T12:00:48.377Z,8.9
2022-12-24T12:01:49.831Z,8.9
2022-12-24T12:02:51.758Z,8.9
2022-12-24T12:03:53.523Z,9
2022-12-24T12:04:54.741Z,9
2022-12-24T12:05:55.971Z,9
2022-12-24T12:06:56.663Z,9.1
2022-12-24T12:07:57.809Z,9.1
2022-12-24T12:08:59.241Z,9.1
2022-12-24T12:10:00.629Z,9.1
2022-12-24T12:11:01.834Z,9.1
2022-12-24T12:12:03.053Z,9.1
2022-12-24T12:13:05.637Z,9.1
2022-12-24T12:14:16.972Z,9.1
2022-12-24T12:15:18.150Z,9.1
2022-12-24T12:16:19.444Z,9.1
2022-12-24T12:17:21.241Z,9.1
2022-12-24T12:18:22.115Z,9.1
2022-12-24T12:19:23.296Z,9.1
2022-12-24T12:20:25.148Z,9.1
2022-12-24T12:21:26.429Z,9.1
2022-12-24T12:22:27.284Z,9
2022-12-24T12:23:28.716Z,9.1
2022-12-24T12:24:32.484Z,9
2022-12-24T12:25:34.077Z,9
2022-12-24T12:26:35.518Z,9
2022-12-24T12:27:36.772Z,9
2022-12-24T12:28:37.928Z,9
2022-12-24T12:29:39.603Z,9
2022-12-24T12:30:40.739Z,9.1
2022-12-24T12:31:41.666Z,9.1
2022-12-24T12:32:43.545Z,9.1
2022-12-24T12:33:44.800Z,9.1
2022-12-24T12:34:46.212Z,9.2
2022-12-24T12:35:46.841Z,9.2
2022-12-24T12:36:48.241Z,9.2
2022-12-24T12:37:49.661Z,9.2
2022-12-24T12:38:50.844Z,9.2
2022-12-24T12:39:51.969Z,9.2
2022-12-24T12:40:52.839Z,9.2
2022-12-24T12:41:55.107Z,9.3
2022-12-24T12:42:56.515Z,9.3
2022-12-24T12:43:57.729Z,9.3
2022-12-24T12:44:59.123Z,9.4
2022-12-24T12:46:00.032Z,9.4
2022-12-24T12:47:01.244Z,9.4
2022-12-24T12:48:03.234Z,9.4
2022-12-24T12:49:04.684Z,9.4
2022-12-24T12:50:05.506Z,9.4
2022-12-24T12:51:06.423Z,9.4
2022-12-24T12:52:07.551Z,9.4
2022-12-24T12:53:08.970Z,9.4
2022-12-24T12:54:10.395Z,9.4
2022-12-24T12:55:11.819Z,9.4
2022-12-24T12:56:13.205Z,9.4
2022-12-24T12:57:14.349Z,9.3
2022-12-24T12:58:15.523Z,9.3
2022-12-24T12:59:16.706Z,9.3
2022-12-24T13:00:17.954Z,9.3
2022-12-24T13:01:18.747Z,9.3
2022-12-24T13:02:21.062Z,9.2
2022-12-24T13:03:23.106Z,9.2
2022-12-24T13:04:24.975Z,9.2
2022-12-24T13:05:26.102Z,9.2
2022-12-24T13:06:27.523Z,9.1
2022-12-24T13:07:32.763Z,9.1
2022-12-24T13:08:39.160Z,9.1
2022-12-24T13:09:40.287Z,9.1
2022-12-24T13:10:41.727Z,9
2022-12-24T13:11:43.109Z,9
2022-12-24T13:12:44.388Z,9
2022-12-24T13:13:45.823Z,9.1
2022-12-24T13:14:46.948Z,9
2022-12-24T13:15:48.143Z,9
2022-12-24T13:16:49.976Z,9
2022-12-24T13:17:56.320Z,9
2022-12-24T13:18:57.731Z,9
2022-12-24T13:19:59.180Z,9
2022-12-24T13:21:00.277Z,9
2022-12-24T13:22:01.697Z,9
2022-12-24T13:23:02.822Z,8.9
2022-12-24T13:24:04.062Z,8.9
2022-12-24T13:25:05.170Z,8.9
2022-12-24T13:26:06.606Z,8.9
2022-12-24T13:27:07.758Z,8.9
2022-12-24T13:28:08.679Z,8.9
2022-12-24T13:29:10.161Z,8.9
2022-12-24T13:30:11.329Z,8.8
2022-12-24T13:31:12.768Z,8.9
2022-12-24T13:32:13.979Z,8.9
2022-12-24T13:33:15.425Z,8.9
2022-12-24T13:34:16.699Z,8.9
2022-12-24T13:35:18.078Z,8.9
2022-12-24T13:36:19.217Z,8.9
2022-12-24T13:37:20.349Z,8.9
2022-12-24T13:38:21.308Z,8.9
2022-12-24T13:39:22.469Z,8.9
2022-12-24T13:40:23.340Z,8.9
2022-12-24T13:41:24.273Z,8.9
2022-12-24T13:42:25.438Z,8.9
2022-12-24T13:43:26.681Z,8.9
2022-12-24T13:44:28.118Z,8.8
2022-12-24T13:45:28.951Z,8.8
2022-12-24T13:46:31.007Z,8.8
2022-12-24T13:47:32.848Z,8.8
2022-12-24T13:48:34.072Z,8.7
2022-12-24T13:49:35.573Z,8.7
2022-12-24T13:50:36.985Z,8.7
2022-12-24T13:51:38.100Z,8.7
2022-12-24T13:52:42.382Z,8.7
2022-12-24T13:53:44.117Z,8.7
2022-12-24T13:54:45.618Z,8.7
2022-12-24T13:55:47.034Z,8.7
2022-12-24T13:56:48.191Z,8.7
2022-12-24T13:57:49.306Z,8.7
2022-12-24T13:58:50.212Z,8.7
2022-12-24T13:59:51.359Z,8.7
2022-12-24T14:00:52.430Z,8.7
2022-12-24T14:01:54.067Z,8.7
2022-12-24T14:02:56.557Z,8.7
2022-12-24T14:03:58.443Z,8.7
2022-12-24T14:04:59.910Z,8.7
2022-12-24T14:06:01.133Z,8.7
2022-12-24T14:07:01.979Z,8.7
2022-12-24T14:08:03.114Z,8.7
2022-12-24T14:09:04.249Z,8.6
2022-12-24T14:10:05.445Z,8.6